Terminal Aerodrome Forecast
Issued by NWS

Home | Current Version | Previous Version | Text Only | Print | Product List | Glossary On
Versions: 1 2 3 4 5 6 7 8 9 10 11 12 13 14 15 16 17 18 19
000
FTUS45 KPSR 192328
TAFIPL
TAF
KIPL 192328Z 2000/2024 28020G28KT P6SM SKC
      TEMPO 2000/2002 27028G38KT 6SM BLDU
     FM200800 27010KT P6SM SKC=

USA.gov is the U.S. government's official web portal to all federal, state and local government web resources and services.